Sand Spring Valley, Nevada Weather observations

Data are for 10 minute period ending at time listed.
 Day   Time   Solar   Ave.   Ave.  Ave.  Vector  Max.   Baro.   Total    
  of    of     Rad.   Air    Rel.  Wind   Wind   Wind  Press.  Precip.   
Year   Day            Temp.  Hum.  Speed  Dir.   Gust                    
2016   (PST)  Kw/m2    F      %     mph   deg.    mph    mb.     in.     
-------------------------------------------------------------------------
 235   13:00   0.00   86.7    18    2.3   132     5.1   851.3    0.00 
 235   13:10   0.00   85.8    17    2.6    60     5.9   851.2    0.00 
 235   13:20   0.00   86.4    20    4.6    97     9.9   851.0    0.00 
 235   13:30   0.00   84.7    20    5.0   128     8.6   850.9    0.00 
 235   13:40   0.00   83.8    23    6.6   124     9.3   850.7    0.00 
 235   13:50   0.00   84.4    23    6.4   133    11.2   850.7    0.00 
 235   14:00   0.00   82.7    22   13.5   232    31.3   850.7    0.00 
 235   14:10   0.00   80.7    20   16.0   277    20.4   851.1    0.00 
 235   14:20   0.00   79.1    24   12.2   244    19.3   851.4    0.00 
 235   14:30   0.00   76.9    27   10.3   242    21.0   852.0    0.00 
 235   14:40   0.00   71.0    46   14.6   191    23.5   852.3    0.03 
 235   14:50   0.00   67.9    50    7.3   144    15.5   852.8    0.06 
 235   15:00   0.00   67.6    51   11.0    99    21.3   853.3    0.03 
 235   15:10   0.00   66.5    51    3.9    59    11.7   854.0    0.05 
 235   15:20   0.00   67.3    49    6.0   147    13.6   853.8    0.02 
 235   15:30   0.00   68.2    44    7.5   238    17.7   853.7    0.00 
 235   15:40   0.00   70.3    38    4.5   245     7.3   853.4    0.01 
 235   15:50   0.00   68.5    50    8.9   221    13.4   853.3    0.00 
 235   16:00   0.00   67.4    58   11.1   186    17.0   853.2    0.00 
 235   16:10   0.00   68.8    47   13.8   150    20.1   853.3    0.00 
 235   16:20   0.00   69.3    43   14.9   152    20.0   853.3    0.00 
 235   16:30   0.00   70.2    41   10.7   162    14.2   853.1    0.00 
 235   16:40   0.00   71.6    34   14.8   132    25.6   852.8    0.00 
 235   16:50   0.00   70.7    38   12.0   122    20.2   852.8    0.00 
 235   17:00   0.00   71.5    36   10.5    97    14.9   852.5    0.00 
 235   17:10   0.00   70.1    41    9.1    95    12.9   852.2    0.00 
 235   17:20   0.00   70.6    40    7.6    69    10.5   852.2    0.00 
 235   17:30   0.00   69.6    47    3.1    54     5.8   852.3    0.00 
 235   17:40   0.00   68.2    55    3.0   198     5.4   852.4    0.00 
 235   17:50   0.00   67.2    61    4.3   257     5.4   852.4    0.00 
 235   18:00   0.00   66.9    63    5.6   266     8.2   852.4    0.00 
 235   18:10   0.00   67.4    60    5.6   216     7.4   852.5    0.00 
 235   18:20   0.00   67.2    56    5.8   199     8.1   852.6    0.00 
 235   18:30   0.00   66.8    58    3.6   200     4.7   852.8    0.00 
 235   18:40   0.00   65.4    66    4.2   145    11.9   853.2    0.00 
 235   18:50   0.00   68.9    43    8.9   146    18.2   853.3    0.00 
 235   19:00   0.00   68.4    48    7.0   174    14.9   853.3    0.00 
 235   19:10   0.00   67.9    49   11.6   158    17.2   853.2    0.00 
 235   19:20   0.00   67.6    49   11.2   158    15.9   853.3    0.00 
 235   19:30   0.00   67.4    49   10.8   149    15.0   853.4    0.00 
 235   19:40   0.00   67.5    49    9.7   151    20.1   853.4    0.00 
 235   19:50   0.00   66.6    52    9.5   147    14.2   853.5    0.00 
 235   20:00   0.00   67.2    49   10.7   137    17.2   853.7    0.00 
 235   20:10   0.00   68.0    46    8.5   149    17.4   854.0    0.00 
 235   20:20   0.00   67.9    47    6.0   135     9.1   854.2    0.00 
 235   20:30   0.00   67.2    50    8.4   137    12.0   854.2    0.00 
 235   20:40   0.00   67.6    48    7.5   136    10.4   854.1    0.00 
 235   20:50   0.00   67.3    49    2.8   135     5.6   854.3    0.00 
 235   21:00   0.00   66.5    52    2.5   103     4.5   854.5    0.00 
 235   21:10   0.00   64.9    59    4.5    62     6.4   854.5    0.00 
 235   21:20   0.00   64.5    60    6.6    75     9.1   854.5    0.00 
 235   21:30   0.00   64.1    59    8.1   106    11.1   854.5    0.00 
 235   21:40   0.00   64.1    60    3.2   103     6.9   854.5    0.00 
 235   21:50   0.00   65.2    53    5.3   131     9.6   854.5    0.00 
 235   22:00   0.00   66.1    50    4.4   110     6.6   854.4    0.00 
 235   22:10   0.00   65.0    54    4.2   119     5.8   854.4    0.00 
 235   22:20   0.00   64.8    54    4.7   125     7.5   854.3    0.00 
 235   22:30   0.00   64.8    55    6.4   128     9.0   854.5    0.00 
 235   22:40   0.00   64.4    58    6.1   191     9.6   854.7    0.00 
 235   22:50   0.00   64.7    55    4.3   179     6.5   854.8    0.00 
 235   23:00   0.00   63.8    59    5.6   201     8.6   854.9    0.00 
 235   23:10   0.00   62.3    66    6.4   215     7.8   854.9    0.00 
 235   23:20   0.00   61.7    67    5.7   238     7.6   855.0    0.00 
 235   23:30   0.00   62.0    64    4.8   224     8.1   855.0    0.00 
 235   23:40   0.00   62.6    62    4.4   228     6.4   855.0    0.00 
 235   23:50   0.00   61.5    66    1.4   135     3.4   854.9    0.00 
 236    0:00   0.00   61.5    66    0.1    83     1.2   854.8    0.00 
 236    0:10   0.00   61.7    64    1.0    89     4.0   854.8    0.00 
 236    0:20   0.00   64.7    51    2.5   123     5.2   854.8    0.00 
 236    0:30   0.00   63.5    59    3.2   305     5.7   854.9    0.00 
 236    0:40   0.00   60.6    68    2.4   335     4.4   855.0    0.00 
 236    0:50   0.00   62.6    61    2.2   337     5.4   855.0    0.00 
 236    1:00   0.00   63.3    57    0.5   261     3.0   855.0    0.00 
 236    1:10   0.00   62.3    61    1.2   286     4.1   854.9    0.00 
 236    1:20   0.00   61.8    62    3.1   151     5.4   854.8    0.00 
 236    1:30   0.00   61.7    62    1.6   168     4.7   854.8    0.00 
 236    1:40   0.00   60.5    67    5.1   139     6.9   854.7    0.00 
 236    1:50   0.00   59.5    69    0.6   184     3.1   854.8    0.00 
 236    2:00   0.00   59.6    68    0.6   227     3.9   854.7    0.00 
 236    2:10   0.00   60.1    65    1.8   254     4.7   854.7    0.00 
 236    2:20   0.00   59.7    66    0.4   268     2.3   854.6    0.00 
 236    2:30   0.00   58.5    71    1.9    90     4.9   854.6    0.00 
 236    2:40   0.00   58.7    70    1.1    52     3.3   854.5    0.00 
 236    2:50   0.00   58.2    73    1.0    25     3.9   854.5    0.00 
 236    3:00   0.00   57.0    76    2.2    32     4.2   854.5    0.00 
 236    3:10   0.00   56.0    80    2.1    30     5.2   854.5    0.00 
 236    3:20   0.00   56.8    77    4.0     4     5.4   854.5    0.00 
 236    3:30   0.00   58.0    72    1.6   360     3.1   854.5    0.00 
 236    3:40   0.00   56.4    77    1.2   110     4.3   854.5    0.00 
 236    3:50   0.00   55.0    80    0.7   109     1.6   854.7    0.00 
 236    4:00   0.00   54.8    79    0.3   110     1.4   854.6    0.00 
 236    4:10   0.00   53.4    81    0.1   111     1.4   854.7    0.00 
 236    4:20   0.00   52.0    83    1.7   106     2.5   854.8    0.00 
 236    4:30   0.00   52.1    86    1.4    83     3.5   854.8    0.00 
 236    4:40   0.00   52.7    85    3.4   328     4.0   854.9    0.00 
 236    4:50   0.00   52.5    82    4.0   320     5.5   854.9    0.00 
 236    5:00   0.00   52.3    84    1.8   305     4.2   855.0    0.00 
 236    5:10   0.00   51.9    84    1.7   269     4.3   855.1    0.00 
 236    5:20   0.00   50.9    87    2.6   262     4.8   855.3    0.00 
 236    5:30   0.00   50.3    88    2.0   260     3.3   855.6    0.00 
 236    5:40   0.00   50.0    88    4.0   226     5.6   855.6    0.00 
 236    5:50   0.00   50.6    88    3.8   223     4.9   855.7    0.00 
 236    6:00   0.00   52.2    88    3.7   224     5.5   855.8    0.00 
 236    6:10   0.00   53.8    88    2.0   230     2.9   855.9    0.00 
 236    6:20   0.00   55.3    85    1.9   228     3.2   856.0    0.00 
 236    6:30   0.00   56.0    82    2.0   237     3.1   856.0    0.00 
 236    6:40   0.00   57.4    79    1.3   238     2.9   856.1    0.00 
 236    6:50   0.00   59.1    72    0.4   240     1.9   856.2    0.00 
 236    7:00   0.00   61.5    66    0.1   239     1.2   856.3    0.00 
 236    7:10   0.00   62.4    63    0.3   240     1.4   856.4    0.00 
 236    7:20   0.00   63.6    60    0.5   218     1.7   856.5    0.00 
 236    7:30   0.00   64.8    58    0.5   260     2.3   856.7    0.00 
 236    7:40   0.00   65.0    57    1.1    37     2.9   856.8    0.00 
 236    7:50   0.00   65.3    57    2.2    60     3.3   856.9    0.00 
 236    8:00   0.00   65.8    55    2.4    52     3.9   856.9    0.00 
 236    8:10   0.00   67.0    53    2.2    46     3.8   857.1    0.00 
 236    8:20   0.00   68.1    49    1.1    52     3.1   857.1    0.00 
 236    8:30   0.00   69.3    46    1.0    63     2.9   857.1    0.00 
 236    8:40   0.00   69.6    46    2.4    57     4.7   857.1    0.00 
 236    8:50   0.00   70.2    45    2.7    39     5.3   857.1    0.00 
 236    9:00   0.00   71.0    43    1.6    57     4.4   857.0    0.00 
 236    9:10   0.00   72.0    42    1.9    63     4.5   857.1    0.00 
 236    9:20   0.00   72.7    40    1.6    69     3.8   857.1    0.00 
 236    9:30   0.00   73.8    39    1.7    57     4.5   857.0    0.00 
 236    9:40   0.00   75.0    37    1.2    78     3.8   857.0    0.00 
 236    9:50   0.00   76.1    35    0.4   118     2.8   857.0    0.00 
 236   10:00   0.00   77.3    34    0.8   191     3.6   856.9    0.00 
 236   10:10   0.00   78.5    31    1.3   200     4.6   856.8    0.00 
 236   10:20   0.00   78.6    29    1.2   286     3.5   856.8    0.00 
 236   10:30   0.00   78.4    27    1.8   359     4.5   856.7    0.00 
 236   10:40   0.00   78.7    27    1.6   324     5.0   856.6    0.00 
 236   10:50   0.00   79.4    28    2.2   324     5.3   856.5    0.00 
 236   11:00   0.00   79.4    27    2.4   325     4.9   856.4    0.00 
 236   11:10   0.00   81.1    25    1.9    21     7.2   856.3    0.00 
 236   11:20   0.00   81.3    24    2.5    12     4.9   856.1    0.00 
 236   11:30   0.00   81.1    24    2.6   329     7.4   856.0    0.00 
 236   11:40   0.00   81.6    21    2.3   309     5.2   855.9    0.00 
 236   11:50   0.00   83.5    18    1.3   231     3.5   855.8    0.00 
 236   12:00   0.00   84.1    19    3.2   152     6.1   855.7    0.00 
 236   12:10   0.00   82.4    20    2.4   111     4.2   855.5    0.00 
 236   12:20   0.00   83.0    17    0.6   187     2.1   855.5    0.00 
 236   12:30   0.00   83.9    17    2.5   159     4.2   855.3    0.00 
 236   12:40   0.00   83.5    18    1.5   122     3.1   855.2    0.00 
 236   12:50   0.00   82.2    20    1.9    75     4.8   855.2    0.00 

Return to Sand Spring Valley graphs page.


Western Regional Climate Center,wrcc@dri.edu